sensor_id;sensor_type;location;lat;lon;timestamp;pressure;altitude;pressure_sealevel;temperature;humidity
61472;BME280;47337;54.068;12.114;2022-09-25T00:01:06;101007.69;;;12.70;100.00
61472;BME280;47337;54.068;12.114;2022-09-25T00:03:32;101010.31;;;12.68;100.00
61472;BME280;47337;54.068;12.114;2022-09-25T00:06:12;101013.81;;;12.67;100.00
61472;BME280;47337;54.068;12.114;2022-09-25T00:08:37;101015.56;;;12.71;100.00
61472;BME280;47337;54.068;12.114;2022-09-25T00:11:10;101010.31;;;12.70;100.00
61472;BME280;47337;54.068;12.114;2022-09-25T00:13:36;101011.22;;;12.75;100.00
61472;BME280;47337;54.068;12.114;2022-09-25T00:16:05;101007.66;;;12.67;100.00
61472;BME280;47337;54.068;12.114;2022-09-25T00:18:31;101010.31;;;12.70;100.00
61472;BME280;47337;54.068;12.114;2022-09-25T00:21:17;101002.41;;;12.70;100.00
61472;BME280;47337;54.068;12.114;2022-09-25T00:23:45;100998.91;;;12.74;100.00
61472;BME280;47337;54.068;12.114;2022-09-25T00:26:15;100999.78;;;12.73;100.00
61472;BME280;47337;54.068;12.114;2022-09-25T00:28:42;101003.28;;;12.69;100.00
61472;BME280;47337;54.068;12.114;2022-09-25T00:31:08;100998.00;;;12.67;100.00
61472;BME280;47337;54.068;12.114;2022-09-25T00:33:35;100989.19;;;12.59;100.00
61472;BME280;47337;54.068;12.114;2022-09-25T00:36:05;100990.03;;;12.57;100.00
61472;BME280;47337;54.068;12.114;2022-09-25T00:38:33;100989.19;;;12.59;100.00
61472;BME280;47337;54.068;12.114;2022-09-25T00:41:00;100988.31;;;12.65;100.00
61472;BME280;47337;54.068;12.114;2022-09-25T00:43:37;100985.66;;;12.57;100.00
61472;BME280;47337;54.068;12.114;2022-09-25T00:46:10;100990.94;;;12.63;100.00
61472;BME280;47337;54.068;12.114;2022-09-25T00:48:40;100998.84;;;12.62;100.00
61472;BME280;47337;54.068;12.114;2022-09-25T00:51:08;100990.94;;;12.60;100.00
61472;BME280;47337;54.068;12.114;2022-09-25T00:53:39;100997.97;;;12.64;100.00
61472;BME280;47337;54.068;12.114;2022-09-25T00:56:09;100996.22;;;12.65;100.00
61472;BME280;47337;54.068;12.114;2022-09-25T00:58:39;101001.53;;;12.69;100.00
61472;BME280;47337;54.068;12.114;2022-09-25T01:01:06;100995.41;;;12.75;100.00
61472;BME280;47337;54.068;12.114;2022-09-25T01:03:32;100994.50;;;12.71;100.00
61472;BME280;47337;54.068;12.114;2022-09-25T01:05:59;100995.38;;;12.72;100.00
61472;BME280;47337;54.068;12.114;2022-09-25T01:08:26;100998.03;;;12.75;100.00
61472;BME280;47337;54.068;12.114;2022-09-25T01:10:52;100998.03;;;12.75;100.00
61472;BME280;47337;54.068;12.114;2022-09-25T01:13:18;100996.25;;;12.68;100.00
61472;BME280;47337;54.068;12.114;2022-09-25T01:18:45;100983.06;;;12.65;100.00
61472;BME280;47337;54.068;12.114;2022-09-25T01:21:21;100984.81;;;12.60;100.00
61472;BME280;47337;54.068;12.114;2022-09-25T01:27:21;100983.03;;;12.59;100.00
61472;BME280;47337;54.068;12.114;2022-09-25T01:30:00;100986.56;;;12.64;100.00
61472;BME280;47337;54.068;12.114;2022-09-25T01:43:40;100990.88;;;12.48;100.00
61472;BME280;47337;54.068;12.114;2022-09-25T01:48:48;100997.00;;;12.50;100.00
61472;BME280;47337;54.068;12.114;2022-09-25T01:51:23;100991.81;;;12.58;100.00
61472;BME280;47337;54.068;12.114;2022-09-25T01:53:59;100988.28;;;12.62;100.00
61472;BME280;47337;54.068;12.114;2022-09-25T01:56:32;100992.69;;;12.63;100.00
61472;BME280;47337;54.068;12.114;2022-09-25T01:59:15;100986.53;;;12.58;100.00
61472;BME280;47337;54.068;12.114;2022-09-25T02:01:43;100987.44;;;12.60;100.00
61472;BME280;47337;54.068;12.114;2022-09-25T02:04:36;100983.91;;;12.62;100.00
61472;BME280;47337;54.068;12.114;2022-09-25T02:07:04;100986.53;;;12.58;100.00
61472;BME280;47337;54.068;12.114;2022-09-25T02:09:36;100982.16;;;12.60;100.00
61472;BME280;47337;54.068;12.114;2022-09-25T02:12:13;100985.63;;;12.53;100.00
61472;BME280;47337;54.068;12.114;2022-09-25T02:14:52;100982.09;;;12.52;100.00
61472;BME280;47337;54.068;12.114;2022-09-25T02:17:30;100977.75;;;12.56;100.00
61472;BME280;47337;54.068;12.114;2022-09-25T02:20:15;100981.25;;;12.55;100.00
61472;BME280;47337;54.068;12.114;2022-09-25T02:23:04;100980.38;;;12.56;100.00
61472;BME280;47337;54.068;12.114;2022-09-25T02:25:42;100982.97;;;12.53;100.00
61472;BME280;47337;54.068;12.114;2022-09-25T02:28:11;100986.47;;;12.52;100.00
61472;BME280;47337;54.068;12.114;2022-09-25T02:30:37;100988.25;;;12.50;100.00
61472;BME280;47337;54.068;12.114;2022-09-25T02:33:02;100986.47;;;12.50;100.00
61472;BME280;47337;54.068;12.114;2022-09-25T02:35:27;100978.59;;;12.53;100.00
61472;BME280;47337;54.068;12.114;2022-09-25T02:37:54;100980.41;;;12.59;100.00
61472;BME280;47337;54.068;12.114;2022-09-25T02:40:28;100984.78;;;12.61;100.00
61472;BME280;47337;54.068;12.114;2022-09-25T02:42:58;100983.91;;;12.58;100.00
61472;BME280;47337;54.068;12.114;2022-09-25T02:45:58;100981.31;;;12.65;100.00
61472;BME280;47337;54.068;12.114;2022-09-25T02:53:49;100989.22;;;12.65;100.00
61472;BME280;47337;54.068;12.114;2022-09-25T02:56:28;100986.59;;;12.67;100.00
61472;BME280;47337;54.068;12.114;2022-09-25T02:59:06;100990.97;;;12.66;100.00
61472;BME280;47337;54.068;12.114;2022-09-25T03:01:36;100988.38;;;12.71;100.00
61472;BME280;47337;54.068;12.114;2022-09-25T03:04:03;100985.72;;;12.69;100.00
61472;BME280;47337;54.068;12.114;2022-09-25T03:06:32;100977.78;;;12.65;100.00
61472;BME280;47337;54.068;12.114;2022-09-25T03:09:03;100988.34;;;12.66;100.00
61472;BME280;47337;54.068;12.114;2022-09-25T03:11:29;100977.78;;;12.59;100.00
61472;BME280;47337;54.068;12.114;2022-09-25T03:13:59;100980.38;;;12.57;100.00
61472;BME280;47337;54.068;12.114;2022-09-25T03:16:43;100981.22;;;12.49;100.00
61472;BME280;47337;54.068;12.114;2022-09-25T03:19:10;100977.75;;;12.56;100.00
61472;BME280;47337;54.068;12.114;2022-09-25T03:21:36;100983.06;;;12.65;100.00
61472;BME280;47337;54.068;12.114;2022-09-25T03:24:01;100983.97;;;12.70;100.00
61472;BME280;47337;54.068;12.114;2022-09-25T03:26:31;100979.56;;;12.66;100.00
61472;BME280;47337;54.068;12.114;2022-09-25T03:28:59;100974.25;;;12.58;100.00
61472;BME280;47337;54.068;12.114;2022-09-25T03:31:27;100978.63;;;12.56;100.00
61472;BME280;47337;54.068;12.114;2022-09-25T03:33:53;100974.22;;;12.54;100.00
61472;BME280;47337;54.068;12.114;2022-09-25T03:36:21;100978.56;;;12.47;100.00
61472;BME280;47337;54.068;12.114;2022-09-25T03:38:54;100981.25;;;12.55;100.00
61472;BME280;47337;54.068;12.114;2022-09-25T03:41:26;100980.38;;;12.56;100.00
61472;BME280;47337;54.068;12.114;2022-09-25T03:43:55;100983.03;;;12.62;100.00
61472;BME280;47337;54.068;12.114;2022-09-25T03:46:27;100988.28;;;12.62;100.00
61472;BME280;47337;54.068;12.114;2022-09-25T03:48:56;100986.53;;;12.58;100.00
61472;BME280;47337;54.068;12.114;2022-09-25T03:51:23;100990.06;;;12.60;100.00
61472;BME280;47337;54.068;12.114;2022-09-25T03:53:53;100989.22;;;12.68;100.00
61472;BME280;47337;54.068;12.114;2022-09-25T03:56:22;100989.22;;;12.65;100.00
61472;BME280;47337;54.068;12.114;2022-09-25T03:58:48;100985.69;;;12.66;100.00
61472;BME280;47337;54.068;12.114;2022-09-25T04:01:14;100990.09;;;12.66;100.00
61472;BME280;47337;54.068;12.114;2022-09-25T04:03:42;100982.16;;;12.63;100.00
61472;BME280;47337;54.068;12.114;2022-09-25T04:06:12;100978.69;;;12.67;100.00
61472;BME280;47337;54.068;12.114;2022-09-25T04:08:38;100981.31;;;12.68;100.00
61472;BME280;47337;54.068;12.114;2022-09-25T04:11:03;100969.88;;;12.63;100.00
61472;BME280;47337;54.068;12.114;2022-09-25T04:13:34;100976.06;;;12.70;100.00
61472;BME280;47337;54.068;12.114;2022-09-25T04:16:04;100964.63;;;12.60;100.00
61472;BME280;47337;54.068;12.114;2022-09-25T04:18:30;100968.97;;;12.57;100.00
61472;BME280;47337;54.068;12.114;2022-09-25T04:21:04;100965.47;;;12.59;100.00
61472;BME280;47337;54.068;12.114;2022-09-25T04:23:33;100968.09;;;12.56;100.00
61472;BME280;47337;54.068;12.114;2022-09-25T04:25:59;100964.59;;;12.59;100.00
61472;BME280;47337;54.068;12.114;2022-09-25T04:28:27;100966.28;;;12.46;100.00
61472;BME280;47337;54.068;12.114;2022-09-25T04:30:55;100968.03;;;12.45;100.00
61472;BME280;47337;54.068;12.114;2022-09-25T04:33:23;100966.25;;;12.41;100.00
61472;BME280;47337;54.068;12.114;2022-09-25T04:36:07;100974.13;;;12.41;100.00
61472;BME280;47337;54.068;12.114;2022-09-25T04:38:33;100968.88;;;12.41;100.00
61472;BME280;47337;54.068;12.114;2022-09-25T04:40:59;100980.28;;;12.40;100.00
61472;BME280;47337;54.068;12.114;2022-09-25T04:43:29;100977.72;;;12.53;100.00
61472;BME280;47337;54.068;12.114;2022-09-25T04:46:03;100975.06;;;12.51;100.00
61472;BME280;47337;54.068;12.114;2022-09-25T04:48:29;100980.34;;;12.48;100.00
61472;BME280;47337;54.068;12.114;2022-09-25T04:50:54;100977.69;;;12.46;100.00
61472;BME280;47337;54.068;12.114;2022-09-25T04:53:22;100975.09;;;12.54;100.00
61472;BME280;47337;54.068;12.114;2022-09-25T04:55:47;100976.88;;;12.57;100.00
61472;BME280;47337;54.068;12.114;2022-09-25T04:58:13;100977.72;;;12.53;100.00
61472;BME280;47337;54.068;12.114;2022-09-25T05:00:38;100977.72;;;12.54;100.00
61472;BME280;47337;54.068;12.114;2022-09-25T05:03:05;100979.47;;;12.48;100.00
61472;BME280;47337;54.068;12.114;2022-09-25T05:05:31;100974.16;;;12.44;100.00
61472;BME280;47337;54.068;12.114;2022-09-25T05:07:58;100972.47;;;12.50;100.00
61472;BME280;47337;54.068;12.114;2022-09-25T05:10:26;100982.09;;;12.52;100.00
61472;BME280;47337;54.068;12.114;2022-09-25T05:15:21;100981.22;;;12.49;100.00
61472;BME280;47337;54.068;12.114;2022-09-25T05:17:47;100975.94;;;12.45;100.00
61472;BME280;47337;54.068;12.114;2022-09-25T05:20:14;100983.00;;;12.56;100.00
61472;BME280;47337;54.068;12.114;2022-09-25T05:22:41;100983.88;;;12.55;100.00
61472;BME280;47337;54.068;12.114;2022-09-25T05:25:07;100985.66;;;12.57;100.00
61472;BME280;47337;54.068;12.114;2022-09-25T05:27:33;100989.16;;;12.56;100.00
61472;BME280;47337;54.068;12.114;2022-09-25T05:29:59;100990.88;;;12.48;100.00
61472;BME280;47337;54.068;12.114;2022-09-25T05:32:24;100983.91;;;12.58;100.00
61472;BME280;47337;54.068;12.114;2022-09-25T05:34:50;100984.75;;;12.54;100.00
61472;BME280;47337;54.068;12.114;2022-09-25T05:37:15;100979.50;;;12.57;100.00
61472;BME280;47337;54.068;12.114;2022-09-25T05:39:41;100990.88;;;12.50;100.00
61472;BME280;47337;54.068;12.114;2022-09-25T05:42:06;100984.75;;;12.49;100.00
61472;BME280;47337;54.068;12.114;2022-09-25T05:44:34;100983.91;;;12.56;100.00
61472;BME280;47337;54.068;12.114;2022-09-25T05:47:02;100985.69;;;12.63;100.00
61472;BME280;47337;54.068;12.114;2022-09-25T05:49:28;100986.59;;;12.70;100.00
61472;BME280;47337;54.068;12.114;2022-09-25T05:51:56;100981.31;;;12.67;100.00
61472;BME280;47337;54.068;12.114;2022-09-25T05:54:21;100981.34;;;12.76;100.00
61472;BME280;47337;54.068;12.114;2022-09-25T05:56:46;100979.63;;;12.86;100.00
61472;BME280;47337;54.068;12.114;2022-09-25T05:59:11;100980.50;;;12.77;100.00
61472;BME280;47337;54.068;12.114;2022-09-25T06:01:37;100981.41;;;12.88;100.00
61472;BME280;47337;54.068;12.114;2022-09-25T06:04:02;100977.03;;;12.93;100.00
61472;BME280;47337;54.068;12.114;2022-09-25T06:06:29;100979.69;;;12.90;100.00
61472;BME280;47337;54.068;12.114;2022-09-25T06:08:55;100983.25;;;13.03;100.00
61472;BME280;47337;54.068;12.114;2022-09-25T06:11:21;100978.00;;;13.10;100.00
61472;BME280;47337;54.068;12.114;2022-09-25T06:13:48;100984.16;;;13.11;100.00
61472;BME280;47337;54.068;12.114;2022-09-25T06:16:15;100977.19;;;13.21;100.00
61472;BME280;47337;54.068;12.114;2022-09-25T06:18:43;100974.53;;;13.21;100.00
61472;BME280;47337;54.068;12.114;2022-09-25T06:21:11;100973.66;;;13.28;100.00
61472;BME280;47337;54.068;12.114;2022-09-25T06:23:41;100965.75;;;13.28;100.00
61472;BME280;47337;54.068;12.114;2022-09-25T06:26:07;100958.75;;;13.40;100.00
61472;BME280;47337;54.068;12.114;2022-09-25T06:28:34;100960.53;;;13.44;100.00
61472;BME280;47337;54.068;12.114;2022-09-25T06:31:01;100961.41;;;13.48;100.00
61472;BME280;47337;54.068;12.114;2022-09-25T06:33:26;100953.50;;;13.51;100.00
61472;BME280;47337;54.068;12.114;2022-09-25T06:35:51;100955.25;;;13.49;100.00
61472;BME280;47337;54.068;12.114;2022-09-25T06:38:17;100937.69;;;13.69;100.00
61472;BME280;47337;54.068;12.114;2022-09-25T06:40:42;100935.91;;;13.77;100.00
61472;BME280;47337;54.068;12.114;2022-09-25T06:43:10;100937.69;;;13.86;100.00
61472;BME280;47337;54.068;12.114;2022-09-25T06:45:36;100928.88;;;13.95;100.00
61472;BME280;47337;54.068;12.114;2022-09-25T06:48:11;100930.63;;;14.14;100.00
61472;BME280;47337;54.068;12.114;2022-09-25T06:50:48;100918.28;;;14.29;100.00
61472;BME280;47337;54.068;12.114;2022-09-25T06:53:15;100921.81;;;14.41;100.00
61472;BME280;47337;54.068;12.114;2022-09-25T06:55:41;100908.56;;;14.51;100.00
61472;BME280;47337;54.068;12.114;2022-09-25T06:58:11;100898.78;;;14.67;100.00
61472;BME280;47337;54.068;12.114;2022-09-25T07:00:36;100893.47;;;14.73;100.00
61472;BME280;47337;54.068;12.114;2022-09-25T07:03:02;100884.69;;;14.63;100.00
61472;BME280;47337;54.068;12.114;2022-09-25T07:05:46;100883.81;;;14.71;100.00
61472;BME280;47337;54.068;12.114;2022-09-25T07:08:13;100885.56;;;14.72;100.00
61472;BME280;47337;54.068;12.114;2022-09-25T07:10:51;100879.31;;;14.85;100.00
61472;BME280;47337;54.068;12.114;2022-09-25T07:13:17;100862.56;;;14.84;100.00
61472;BME280;47337;54.068;12.114;2022-09-25T07:15:50;100864.28;;;14.94;100.00
61472;BME280;47337;54.068;12.114;2022-09-25T07:18:16;100851.91;;;14.99;100.00
61472;BME280;47337;54.068;12.114;2022-09-25T07:20:44;100850.16;;;14.95;100.00
61472;BME280;47337;54.068;12.114;2022-09-25T07:23:14;100845.69;;;15.10;100.00
61472;BME280;47337;54.068;12.114;2022-09-25T07:25:41;100843.91;;;15.10;100.00
61472;BME280;47337;54.068;12.114;2022-09-25T07:28:11;100845.75;;;15.02;100.00
61472;BME280;47337;54.068;12.114;2022-09-25T07:30:40;100839.66;;;14.83;100.00
61472;BME280;47337;54.068;12.114;2022-09-25T07:33:08;100831.66;;;14.97;100.00
61472;BME280;47337;54.068;12.114;2022-09-25T07:35:35;100833.44;;;14.95;100.00
61472;BME280;47337;54.068;12.114;2022-09-25T07:38:03;100833.34;;;15.07;100.00
61472;BME280;47337;54.068;12.114;2022-09-25T07:40:29;100829.00;;;15.03;100.00
61472;BME280;47337;54.068;12.114;2022-09-25T07:42:59;100823.81;;;14.83;100.00
61472;BME280;47337;54.068;12.114;2022-09-25T07:45:27;100819.38;;;14.91;100.00
61472;BME280;47337;54.068;12.114;2022-09-25T07:48:00;100820.09;;;15.12;100.00
61472;BME280;47337;54.068;12.114;2022-09-25T07:50:27;100817.56;;;14.96;100.00
61472;BME280;47337;54.068;12.114;2022-09-25T07:52:53;100815.78;;;15.00;100.00
61472;BME280;47337;54.068;12.114;2022-09-25T07:55:19;100818.34;;;15.12;100.00
61472;BME280;47337;54.068;12.114;2022-09-25T07:57:44;100816.44;;;15.29;100.00
61472;BME280;47337;54.068;12.114;2022-09-25T08:00:13;100806.84;;;15.16;100.00
61472;BME280;47337;54.068;12.114;2022-09-25T08:02:38;100815.72;;;15.09;100.00
61472;BME280;47337;54.068;12.114;2022-09-25T08:05:04;100811.28;;;15.14;100.00
61472;BME280;47337;54.068;12.114;2022-09-25T08:07:30;100818.34;;;15.11;100.00
61472;BME280;47337;54.068;12.114;2022-09-25T08:09:55;100810.34;;;15.18;100.00
61472;BME280;47337;54.068;12.114;2022-09-25T08:12:21;100816.53;;;15.17;100.00
61472;BME280;47337;54.068;12.114;2022-09-25T08:14:50;100806.78;;;15.24;100.00
61472;BME280;47337;54.068;12.114;2022-09-25T08:17:16;100808.56;;;15.22;100.00
61472;BME280;47337;54.068;12.114;2022-09-25T08:19:43;100801.44;;;15.31;100.00
61472;BME280;47337;54.068;12.114;2022-09-25T08:22:15;100800.63;;;15.20;100.00
61472;BME280;47337;54.068;12.114;2022-09-25T08:24:40;100791.09;;;15.04;100.00
61472;BME280;47337;54.068;12.114;2022-09-25T08:27:06;100796.38;;;15.01;100.00
61472;BME280;47337;54.068;12.114;2022-09-25T08:29:35;100803.38;;;15.05;100.00
61472;BME280;47337;54.068;12.114;2022-09-25T08:32:00;100800.81;;;14.97;100.00
61472;BME280;47337;54.068;12.114;2022-09-25T08:34:25;100798.16;;;15.00;100.00
61472;BME280;47337;54.068;12.114;2022-09-25T08:36:51;100807.84;;;15.03;100.00
61472;BME280;47337;54.068;12.114;2022-09-25T08:39:16;100807.75;;;15.12;100.00
61472;BME280;47337;54.068;12.114;2022-09-25T08:41:49;100814.81;;;15.15;100.00
61472;BME280;47337;54.068;12.114;2022-09-25T08:44:23;100804.25;;;15.13;100.00
61472;BME280;47337;54.068;12.114;2022-09-25T08:47:09;100804.19;;;15.18;100.00
61472;BME280;47337;54.068;12.114;2022-09-25T08:52:26;100786.44;;;15.32;100.00
61472;BME280;47337;54.068;12.114;2022-09-25T08:54:51;100786.19;;;15.62;100.00
61472;BME280;47337;54.068;12.114;2022-09-25T08:59:58;100768.09;;;16.01;100.00
61472;BME280;47337;54.068;12.114;2022-09-25T09:02:38;100753.19;;;15.92;100.00
61472;BME280;47337;54.068;12.114;2022-09-25T09:05:14;100755.16;;;15.78;100.00
61472;BME280;47337;54.068;12.114;2022-09-25T09:07:49;100761.00;;;16.03;100.00
61472;BME280;47337;54.068;12.114;2022-09-25T09:15:51;100737.28;;;16.63;100.00
61472;BME280;47337;54.068;12.114;2022-09-25T09:18:28;100722.28;;;16.57;100.00
61472;BME280;47337;54.068;12.114;2022-09-25T09:21:02;100729.09;;;16.76;100.00
61472;BME280;47337;54.068;12.114;2022-09-25T09:23:38;100720.25;;;16.77;100.00
61472;BME280;47337;54.068;12.114;2022-09-25T09:26:31;100708.53;;;16.92;100.00
61472;BME280;47337;54.068;12.114;2022-09-25T09:34:41;100694.25;;;16.99;100.00
61472;BME280;47337;54.068;12.114;2022-09-25T09:40:17;100690.00;;;16.89;100.00
61472;BME280;47337;54.068;12.114;2022-09-25T09:43:04;100682.09;;;16.84;100.00
61472;BME280;47337;54.068;12.114;2022-09-25T09:48:30;100679.41;;;16.89;100.00
61472;BME280;47337;54.068;12.114;2022-09-25T09:51:12;100675.31;;;17.19;100.00
61472;BME280;47337;54.068;12.114;2022-09-25T09:53:52;100674.28;;;17.28;100.00
61472;BME280;47337;54.068;12.114;2022-09-25T09:56:26;100662.06;;;17.19;100.00
61472;BME280;47337;54.068;12.114;2022-09-25T09:58:56;100665.16;;;17.42;100.00
61472;BME280;47337;54.068;12.114;2022-09-25T10:01:27;100652.16;;;17.27;100.00
61472;BME280;47337;54.068;12.114;2022-09-25T10:04:11;100645.75;;;17.39;100.00
61472;BME280;47337;54.068;12.114;2022-09-25T10:06:45;100629.78;;;17.42;99.68
61472;BME280;47337;54.068;12.114;2022-09-25T10:09:14;100629.03;;;17.35;99.22
61472;BME280;47337;54.068;12.114;2022-09-25T10:11:44;100632.63;;;17.31;99.37
61472;BME280;47337;54.068;12.114;2022-09-25T10:14:16;100625.25;;;17.02;99.58
61472;BME280;47337;54.068;12.114;2022-09-25T10:16:48;100642.75;;;17.11;100.00
61472;BME280;47337;54.068;12.114;2022-09-25T10:19:24;100644.47;;;17.15;100.00
61472;BME280;47337;54.068;12.114;2022-09-25T10:22:13;100648.75;;;17.22;100.00
61472;BME280;47337;54.068;12.114;2022-09-25T10:24:54;100635.47;;;17.22;99.75
61472;BME280;47337;54.068;12.114;2022-09-25T10:27:21;100625.09;;;17.10;98.40
61472;BME280;47337;54.068;12.114;2022-09-25T10:30:04;100642.19;;;16.94;98.77
61472;BME280;47337;54.068;12.114;2022-09-25T10:32:33;100638.56;;;16.98;98.82
61472;BME280;47337;54.068;12.114;2022-09-25T10:34:59;100641.41;;;16.87;98.96
61472;BME280;47337;54.068;12.114;2022-09-25T10:37:30;100639.94;;;16.71;99.21
61472;BME280;47337;54.068;12.114;2022-09-25T10:40:02;100654.59;;;16.92;99.75
61472;BME280;47337;54.068;12.114;2022-09-25T10:44:57;100641.44;;;16.86;98.45
61472;BME280;47337;54.068;12.114;2022-09-25T10:50:12;100643.41;;;16.74;98.32
61472;BME280;47337;54.068;12.114;2022-09-25T10:52:54;100641.38;;;16.90;98.05
61472;BME280;47337;54.068;12.114;2022-09-25T11:00:51;100623.50;;;17.01;97.20
61472;BME280;47337;54.068;12.114;2022-09-25T11:03:26;100611.88;;;17.07;96.36
61472;BME280;47337;54.068;12.114;2022-09-25T11:06:05;100612.63;;;17.15;95.98
61472;BME280;47337;54.068;12.114;2022-09-25T11:08:35;100603.50;;;17.28;95.86
61472;BME280;47337;54.068;12.114;2022-09-25T11:11:06;100614.53;;;17.51;96.31
61472;BME280;47337;54.068;12.114;2022-09-25T11:13:45;100598.13;;;17.76;94.85
61472;BME280;47337;54.068;12.114;2022-09-25T11:16:14;100579.47;;;17.79;93.74
61472;BME280;47337;54.068;12.114;2022-09-25T11:21:20;100555.50;;;18.19;90.86
61472;BME280;47337;54.068;12.114;2022-09-25T11:24:12;100549.16;;;18.24;90.16
61472;BME280;47337;54.068;12.114;2022-09-25T11:26:53;100550.06;;;18.60;90.11
61472;BME280;47337;54.068;12.114;2022-09-25T11:29:40;100543.59;;;19.01;89.27
61472;BME280;47337;54.068;12.114;2022-09-25T11:34:55;100523.19;;;19.33;87.14
61472;BME280;47337;54.068;12.114;2022-09-25T11:49:15;100476.09;;;19.35;82.79
61472;BME280;47337;54.068;12.114;2022-09-25T12:00:08;100459.16;;;19.93;80.73
61472;BME280;47337;54.068;12.114;2022-09-25T12:13:38;100464.59;;;19.90;81.66
61472;BME280;47337;54.068;12.114;2022-09-25T12:18:47;100434.69;;;20.83;78.48
61472;BME280;47337;54.068;12.114;2022-09-25T12:21:22;100418.66;;;20.83;77.83
61472;BME280;47337;54.068;12.114;2022-09-25T12:37:18;100441.56;;;19.61;79.91
61472;BME280;47337;54.068;12.114;2022-09-25T12:39:51;100456.72;;;19.59;80.51
61472;BME280;47337;54.068;12.114;2022-09-25T12:42:42;100452.22;;;19.32;80.82
61472;BME280;47337;54.068;12.114;2022-09-25T12:45:14;100467.41;;;19.28;81.62
61472;BME280;47337;54.068;12.114;2022-09-25T12:47:57;100468.78;;;19.12;82.34
61472;BME280;47337;54.068;12.114;2022-09-25T12:50:28;100474.22;;;19.08;83.28
61472;BME280;47337;54.068;12.114;2022-09-25T12:52:58;100480.03;;;19.22;83.53
61472;BME280;47337;54.068;12.114;2022-09-25T12:55:37;100461.09;;;18.72;83.71
61472;BME280;47337;54.068;12.114;2022-09-25T12:58:17;100470.03;;;19.30;83.36
61472;BME280;47337;54.068;12.114;2022-09-25T13:00:56;100453.47;;;19.50;82.49
61472;BME280;47337;54.068;12.114;2022-09-25T13:03:32;100446.22;;;19.25;82.28
61472;BME280;47337;54.068;12.114;2022-09-25T13:09:05;100460.59;;;18.58;83.84
61472;BME280;47337;54.068;12.114;2022-09-25T13:11:42;100479.34;;;18.18;85.72
61472;BME280;47337;54.068;12.114;2022-09-25T13:14:16;100489.78;;;18.25;86.53
61472;BME280;47337;54.068;12.114;2022-09-25T13:16:45;100508.47;;;17.87;87.78
61472;BME280;47337;54.068;12.114;2022-09-25T13:19:24;100510.31;;;17.43;89.43
61472;BME280;47337;54.068;12.114;2022-09-25T13:21:50;100522.25;;;17.23;90.87
61472;BME280;47337;54.068;12.114;2022-09-25T13:24:25;100535.81;;;17.07;92.69
61472;BME280;47337;54.068;12.114;2022-09-25T13:26:53;100542.50;;;16.83;93.52
61472;BME280;47337;54.068;12.114;2022-09-25T13:29:31;100543.81;;;16.58;94.52
61472;BME280;47337;54.068;12.114;2022-09-25T13:32:05;100555.53;;;16.45;95.60
61472;BME280;47337;54.068;12.114;2022-09-25T13:34:39;100549.28;;;16.49;96.51
61472;BME280;47337;54.068;12.114;2022-09-25T13:37:08;100554.63;;;16.46;97.22
61472;BME280;47337;54.068;12.114;2022-09-25T13:39:39;100543.00;;;16.55;97.13
61472;BME280;47337;54.068;12.114;2022-09-25T13:42:40;100547.75;;;16.36;98.44
61472;BME280;47337;54.068;12.114;2022-09-25T13:45:31;100555.56;;;16.43;99.83
61472;BME280;47337;54.068;12.114;2022-09-25T13:48:08;100551.81;;;16.55;100.00
61472;BME280;47337;54.068;12.114;2022-09-25T13:50:45;100544.28;;;16.83;99.61
61472;BME280;47337;54.068;12.114;2022-09-25T13:53:23;100540.19;;;16.65;99.67
61472;BME280;47337;54.068;12.114;2022-09-25T13:58:21;100536.59;;;16.69;100.00
61472;BME280;47337;54.068;12.114;2022-09-25T14:03:46;100534.84;;;16.67;100.00
61472;BME280;47337;54.068;12.114;2022-09-25T14:06:23;100536.53;;;16.72;100.00
61472;BME280;47337;54.068;12.114;2022-09-25T14:08:52;100529.31;;;16.80;100.00
61472;BME280;47337;54.068;12.114;2022-09-25T14:11:23;100518.94;;;16.68;100.00
61472;BME280;47337;54.068;12.114;2022-09-25T14:13:52;100514.38;;;16.75;100.00
61472;BME280;47337;54.068;12.114;2022-09-25T14:16:30;100521.66;;;16.64;100.00
61472;BME280;47337;54.068;12.114;2022-09-25T14:19:01;100519.53;;;16.32;100.00
61472;BME280;47337;54.068;12.114;2022-09-25T14:21:28;100528.44;;;16.29;100.00
61472;BME280;47337;54.068;12.114;2022-09-25T14:24:10;100537.09;;;16.39;100.00
61472;BME280;47337;54.068;12.114;2022-09-25T14:26:42;100527.22;;;16.47;100.00
61472;BME280;47337;54.068;12.114;2022-09-25T14:29:29;100515.16;;;16.31;100.00
61472;BME280;47337;54.068;12.114;2022-09-25T14:37:58;100509.78;;;16.34;100.00
61472;BME280;47337;54.068;12.114;2022-09-25T14:40:39;100513.66;;;16.16;100.00
61472;BME280;47337;54.068;12.114;2022-09-25T14:43:19;100512.19;;;15.97;100.00
61472;BME280;47337;54.068;12.114;2022-09-25T14:46:13;100526.41;;;15.90;100.00
61472;BME280;47337;54.068;12.114;2022-09-25T14:48:48;100523.50;;;16.08;100.00
61472;BME280;47337;54.068;12.114;2022-09-25T14:51:20;100512.97;;;16.03;100.00
61472;BME280;47337;54.068;12.114;2022-09-25T14:54:00;100508.72;;;15.93;100.00
61472;BME280;47337;54.068;12.114;2022-09-25T14:58:59;100512.53;;;15.76;100.00
61472;BME280;47337;54.068;12.114;2022-09-25T15:01:29;100523.41;;;15.53;100.00
61472;BME280;47337;54.068;12.114;2022-09-25T15:04:05;100530.72;;;15.35;100.00